Página principal
METAR-TAF:

METAR-TAF

Aeroportos :

Malé, Hulhule Island, Maldivas

Aeroporto Internacional Velana

latitude: 04-12N, longitude: 073-32E, altura: 2 m

Observação actual do tempo

O boletim foi feito há 1 hora e 14 minutos, às 06:00 UTC
Vento 7 kt de oeste
Temperatura 32°C
Humidade 75%
Pressão 1012 hPa
Visibilidade 10 km ou mais
Nuvens dispersasa uma altura de 1800 ft
Nuvens dispersasa uma altura de 28000 ft

METAR: VRMM 270600Z 27007KT 9999 SCT018 SCT280 32/27 Q1012 NOSIG

Hora: 12:14 (07:14 UTC)

Previsão

O boletim foi feito há 2 horas e 14 minutos, às 05:00 UTC
Previsão válida de 27 às 06 UTC a 28 às 12 UTC
Vento 8 kt de oeste
Visibilidade 10 km ou mais
Poucas nuvensa uma altura de 1800 ft
Temporariamente
de 27 às 09 UTC a 27 às 15 UTC
Visibilidade: 5000 m
Poucas nuvensa uma altura de 1700 ft, Cumulonimbus.
trovoada, chuva fraca

TAF: VRMM 270500Z 2706/2812 28008KT 9999 FEW018 TEMPO 2709/2715 5000 -TSRA FEW017CB

Observações e previsões do tempo de mais de 4000 aeroportos (mensagens METAR e TAF).

As estações disponíveis são os pontos amarelos e vermelhos sobre o mapa.

Mova o rato sobre o mapa para ver o nome da estação.

Depois clique no ponto para visualizar as observações e previsões meteorológicas.

Para alterar o mapa : clique nos botões verdes com uma cruz preta para aumentar o zoom; no botão verde com uma pitada de zoom; ou nas setas verdes para mapas adjacentes.


METAR-TAF: